Time;durP1;ratioP1;P1;durP2;ratioP2;P2;SDS_P1;SDS_P2;PMS_P1;PMS_P2;Temp;Humidity;BMP_temperature;BMP_pressure;BME280_temperature;BME280_humidity;BME280_pressure;Samples;Min_cycle;Max_cycle;Signal;HPM_P1;HPM_P2
2021/11/18 00:01:29;;;;;;;18.00;4.45;;;;;;;;;;5115373;28;20032;-66
2021/11/18 00:03:56;;;;;;;23.88;3.28;;;;;;;;;;5119808;28;20055;-66
2021/11/18 00:06:22;;;;;;;23.35;3.35;;;;;;;;;;5112101;28;20036;-66
2021/11/18 00:08:49;;;;;;;14.02;3.30;;;;;;;;;;5127132;28;20145;-66
2021/11/18 00:11:17;;;;;;;19.73;4.13;;;;;;;;;;5122655;28;20040;-66
2021/11/18 00:13:43;;;;;;;;;;;;;;;;;;5111375;28;20052;-66
2021/11/18 00:16:09;;;;;;;14.30;3.05;;;;;;;;;;5120604;28;19926;-67
2021/11/18 00:18:36;;;;;;;20.77;3.75;;;;;;;;;;5126827;28;20032;-66
2021/11/18 00:21:07;;;;;;;21.17;4.70;;;;;;;;;;5104477;28;20043;-67
2021/11/18 00:23:35;;;;;;;20.20;4.88;;;;;;;;;;5126535;28;20039;-66
2021/11/18 00:26:02;;;;;;;30.77;4.93;;;;;;;;;;5126694;28;20044;-66
2021/11/18 00:28:28;;;;;;;24.17;3.95;;;;;;;;;;5126483;28;20040;-66
2021/11/18 00:30:54;;;;;;;30.38;4.32;;;;;;;;;;5112410;28;20090;-66
2021/11/18 00:33:21;;;;;;;19.83;4.07;;;;;;;;;;5124991;28;20066;-67
2021/11/18 00:35:48;;;;;;;20.85;4.07;;;;;;;;;;5126537;28;20107;-67
2021/11/18 00:38:14;;;;;;;20.73;4.25;;;;;;;;;;5127245;28;20492;-67
2021/11/18 00:40:42;;;;;;;19.35;4.63;;;;;;;;;;5126049;28;20048;-67
2021/11/18 00:43:09;;;;;;;21.17;4.10;;;;;;;;;;5125959;28;20112;-67
2021/11/18 00:45:36;;;;;;;31.20;5.47;;;;;;;;;;5126688;28;20044;-66
2021/11/18 00:48:02;;;;;;;16.77;3.72;;;;;;;;;;5112556;28;20053;-66
2021/11/18 00:50:39;;;;;;;19.13;3.85;;;;;;;;;;5126265;28;20468;-67
2021/11/18 00:53:06;;;;;;;25.20;5.20;;;;;;;;;;5125998;28;20062;-67
2021/11/18 00:55:32;;;;;;;30.20;6.20;;;;;;;;;;5126212;28;20074;-66
2021/11/18 00:57:58;;;;;;;19.17;4.63;;;;;;;;;;5125327;28;20520;-66
2021/11/18 01:00:26;;;;;;;25.58;4.65;;;;;;;;;;5126385;28;20044;-67
2021/11/18 01:02:54;;;;;;;33.83;5.00;;;;;;;;;;5125641;28;20035;-67
2021/11/18 01:05:24;;;;;;;24.10;5.18;;;;;;;;;;5126187;28;20039;-66
2021/11/18 01:07:51;;;;;;;20.77;4.32;;;;;;;;;;5126281;28;20104;-67
2021/11/18 01:10:17;;;;;;;28.20;4.68;;;;;;;;;;5125687;28;20380;-66
2021/11/18 01:12:43;;;;;;;24.63;5.28;;;;;;;;;;5119257;28;20069;-67
2021/11/18 01:15:11;;;;;;;27.85;4.18;;;;;;;;;;5107182;28;20288;-67
2021/11/18 01:17:37;;;;;;;24.08;4.28;;;;;;;;;;5126036;28;20036;-67
2021/11/18 01:20:04;;;;;;;30.92;4.95;;;;;;;;;;5125935;28;20031;-67
2021/11/18 01:22:31;;;;;;;25.13;4.90;;;;;;;;;;5120331;28;20092;-67
2021/11/18 01:24:58;;;;;;;27.20;4.97;;;;;;;;;;5117372;28;20120;-66
2021/11/18 01:27:24;;;;;;;19.70;5.03;;;;;;;;;;5125732;28;20038;-67
2021/11/18 01:29:50;;;;;;;32.10;4.43;;;;;;;;;;5115005;28;20456;-67
2021/11/18 01:32:16;;;;;;;18.00;4.10;;;;;;;;;;5121496;28;20039;-66
2021/11/18 01:34:42;;;;;;;33.80;4.50;;;;;;;;;;5125738;28;20036;-67
2021/11/18 01:37:08;;;;;;;33.08;5.18;;;;;;;;;;5124280;28;20087;-66
2021/11/18 01:39:34;;;;;;;25.80;5.78;;;;;;;;;;5125254;28;20040;-66
2021/11/18 01:42:00;;;;;;;23.63;5.45;;;;;;;;;;5125636;28;20423;-66
2021/11/18 01:44:37;;;;;;;27.80;4.63;;;;;;;;;;5120784;28;20115;-66
2021/11/18 01:47:04;;;;;;;26.25;5.15;;;;;;;;;;5112193;28;20062;-67
2021/11/18 01:49:31;;;;;;;23.10;4.85;;;;;;;;;;5123315;28;20051;-66
2021/11/18 01:51:59;;;;;;;29.45;5.00;;;;;;;;;;5125784;28;20059;-66
2021/11/18 01:54:26;;;;;;;27.58;5.13;;;;;;;;;;5125212;28;20068;-66
2021/11/18 01:56:53;;;;;;;29.08;5.78;;;;;;;;;;5124533;28;20138;-67
2021/11/18 01:59:21;;;;;;;33.75;5.60;;;;;;;;;;5119126;28;20048;-66
2021/11/18 02:01:47;;;;;;;;;;;;;;;;;;5125725;28;20035;-66
2021/11/18 02:04:15;;;;;;;24.10;5.10;;;;;;;;;;5125621;28;19926;-67
2021/11/18 02:06:45;;;;;;;32.50;4.85;;;;;;;;;;5121318;28;20073;-66
2021/11/18 02:09:13;;;;;;;37.47;6.85;;;;;;;;;;5116790;28;20103;-66
2021/11/18 02:11:41;;;;;;;30.02;7.25;;;;;;;;;;5098906;28;20051;-67
2021/11/18 02:14:09;;;;;;;22.10;5.43;;;;;;;;;;5122871;28;20036;-67
2021/11/18 02:16:35;;;;;;;22.27;4.82;;;;;;;;;;5117939;28;20047;-66
2021/11/18 02:19:01;;;;;;;23.77;4.30;;;;;;;;;;5113862;28;20087;-66
2021/11/18 02:21:27;;;;;;;25.70;5.07;;;;;;;;;;5125146;28;20208;-66
2021/11/18 02:23:55;;;;;;;27.65;4.95;;;;;;;;;;5106282;28;20043;-66
2021/11/18 02:26:23;;;;;;;29.08;5.20;;;;;;;;;;5124361;28;20054;-66
2021/11/18 02:28:49;;;;;;;;;;;;;;;;;;5114476;28;20036;-66
2021/11/18 02:31:25;;;;;;;30.02;5.57;;;;;;;;;;5124735;28;19993;-66
2021/11/18 02:33:51;;;;;;;22.02;5.40;;;;;;;;;;5124623;28;20065;-66
2021/11/18 02:36:18;;;;;;;22.70;5.88;;;;;;;;;;5125210;28;20043;-66
2021/11/18 02:38:44;;;;;;;33.88;6.03;;;;;;;;;;5118720;28;20100;-66
2021/11/18 02:41:11;;;;;;;22.63;4.50;;;;;;;;;;5123913;28;20043;-66
2021/11/18 02:43:38;;;;;;;28.67;5.75;;;;;;;;;;5124450;28;20047;-66
2021/11/18 02:46:04;;;;;;;33.42;6.03;;;;;;;;;;5124375;28;20079;-66
2021/11/18 02:48:31;;;;;;;31.30;5.43;;;;;;;;;;5124231;28;20051;-66
2021/11/18 02:50:58;;;;;;;32.25;5.38;;;;;;;;;;5124172;28;20411;-66
2021/11/18 02:53:25;;;;;;;26.00;5.68;;;;;;;;;;5124581;28;20054;-66
2021/11/18 02:55:52;;;;;;;40.67;6.45;;;;;;;;;;5109345;28;20043;-66
2021/11/18 02:58:18;;;;;;;34.55;7.03;;;;;;;;;;5122482;28;20044;-66
2021/11/18 03:01:03;;;;;;;29.63;6.95;;;;;;;;;;5124277;28;20044;-67
2021/11/18 03:03:29;;;;;;;37.22;6.10;;;;;;;;;;5111652;28;20047;-67
2021/11/18 03:05:57;;;;;;;34.92;7.25;;;;;;;;;;5120593;28;20043;-67
2021/11/18 03:08:23;;;;;;;33.15;5.35;;;;;;;;;;5109804;28;20074;-67
2021/11/18 03:10:51;;;;;;;35.90;5.43;;;;;;;;;;5123926;28;20085;-67
2021/11/18 03:13:18;;;;;;;40.28;5.75;;;;;;;;;;5113755;28;20044;-67
2021/11/18 03:15:44;;;;;;;37.80;7.25;;;;;;;;;;5103803;28;20515;-67
2021/11/18 03:18:10;;;;;;;36.28;5.88;;;;;;;;;;5121192;28;20114;-67
2021/11/18 03:20:36;;;;;;;40.83;5.65;;;;;;;;;;5111421;28;20035;-67
2021/11/18 03:23:02;;;;;;;29.38;5.88;;;;;;;;;;5124027;28;20055;-67
2021/11/18 03:25:30;;;;;;;33.80;7.50;;;;;;;;;;5123881;28;20043;-67
2021/11/18 03:27:56;;;;;;;30.77;5.90;;;;;;;;;;5112005;28;20063;-67
2021/11/18 03:30:25;;;;;;;34.35;6.63;;;;;;;;;;5127335;28;20054;-67
2021/11/18 03:32:55;;;;;;;32.53;6.25;;;;;;;;;;5109878;28;20089;-67
2021/11/18 03:35:22;;;;;;;39.83;5.93;;;;;;;;;;5127310;28;20053;-66
2021/11/18 03:37:48;;;;;;;27.90;6.38;;;;;;;;;;5113877;28;20081;-66
2021/11/18 03:40:14;;;;;;;28.58;5.05;;;;;;;;;;5115803;28;20050;-67
2021/11/18 03:42:41;;;;;;;33.03;6.20;;;;;;;;;;5127665;28;20051;-67
2021/11/18 03:45:07;;;;;;;37.38;6.50;;;;;;;;;;5127269;28;20107;-67
2021/11/18 03:47:33;;;;;;;34.35;6.15;;;;;;;;;;5127301;28;20072;-66
2021/11/18 03:50:00;;;;;;;47.83;7.68;;;;;;;;;;5105721;28;20054;-67
2021/11/18 03:52:27;;;;;;;28.17;5.40;;;;;;;;;;5107033;28;20073;-66
2021/11/18 03:54:53;;;;;;;40.10;9.00;;;;;;;;;;5092944;28;20036;-67
2021/11/18 03:57:20;;;;;;;32.30;6.97;;;;;;;;;;5104154;28;20044;-67
2021/11/18 03:59:47;;;;;;;33.20;6.47;;;;;;;;;;5106633;28;20048;-67
2021/11/18 04:02:13;;;;;;;32.58;7.55;;;;;;;;;;5107499;28;20043;-67
2021/11/18 04:04:40;;;;;;;38.83;8.00;;;;;;;;;;5107123;28;20047;-67
2021/11/18 04:07:06;;;;;;;24.70;5.88;;;;;;;;;;5102416;28;20079;-67
2021/11/18 04:09:33;;;;;;;35.92;6.68;;;;;;;;;;5106962;28;20047;-66
2021/11/18 04:12:00;;;;;;;36.22;7.75;;;;;;;;;;5106150;28;20048;-67
2021/11/18 04:14:26;;;;;;;27.80;6.25;;;;;;;;;;5105789;28;20040;-66
2021/11/18 04:16:52;;;;;;;29.48;6.25;;;;;;;;;;5100930;28;20040;-66
2021/11/18 04:19:19;;;;;;;41.10;6.90;;;;;;;;;;5106879;28;20103;-67
2021/11/18 04:21:45;;;;;;;35.28;6.43;;;;;;;;;;5104997;28;20488;-66
2021/11/18 04:24:13;;;;;;;33.80;7.65;;;;;;;;;;5106560;28;20044;-66
2021/11/18 04:26:41;;;;;;;37.72;6.43;;;;;;;;;;5101419;28;20045;-66
2021/11/18 04:29:07;;;;;;;24.52;5.93;;;;;;;;;;5103388;28;20090;-66
2021/11/18 04:31:33;;;;;;;31.88;6.35;;;;;;;;;;5106375;28;20038;-66
2021/11/18 04:34:00;;;;;;;34.75;5.45;;;;;;;;;;5106372;28;20055;-66
2021/11/18 04:36:27;;;;;;;31.00;6.72;;;;;;;;;;5104807;28;20434;-66
2021/11/18 04:38:53;;;;;;;31.38;6.57;;;;;;;;;;5106473;28;20265;-66
2021/11/18 04:41:21;;;;;;;32.42;5.40;;;;;;;;;;5105258;28;20040;-66
2021/11/18 04:43:47;;;;;;;35.20;6.22;;;;;;;;;;5094862;28;20044;-66
2021/11/18 04:46:14;;;;;;;37.05;5.68;;;;;;;;;;5103767;28;20066;-67
2021/11/18 04:48:41;;;;;;;31.10;7.40;;;;;;;;;;5096172;28;20058;-66
2021/11/18 04:51:08;;;;;;;28.73;5.40;;;;;;;;;;5124833;28;20537;-65
2021/11/18 04:53:35;;;;;;;31.70;7.47;;;;;;;;;;5126494;28;20055;-65
2021/11/18 04:56:01;;;;;;;36.90;6.78;;;;;;;;;;5111824;28;20074;-66
2021/11/18 04:58:27;;;;;;;29.73;6.50;;;;;;;;;;5124137;28;20103;-65
2021/11/18 05:00:55;;;;;;;41.75;6.75;;;;;;;;;;5126247;28;20103;-65
2021/11/18 05:03:22;;;;;;;25.85;6.38;;;;;;;;;;5126169;28;20035;-65
2021/11/18 05:05:49;;;;;;;33.38;6.32;;;;;;;;;;5126292;28;20040;-65
2021/11/18 05:08:15;;;;;;;33.38;5.35;;;;;;;;;;5124334;28;20461;-65
2021/11/18 05:10:43;;;;;;;27.48;5.40;;;;;;;;;;5125960;28;20047;-65
2021/11/18 05:13:09;;;;;;;26.60;5.85;;;;;;;;;;5125690;28;20128;-65
2021/11/18 05:15:36;;;;;;;32.95;5.65;;;;;;;;;;5126158;28;20039;-65
2021/11/18 05:18:03;;;;;;;28.58;7.13;;;;;;;;;;5120873;28;20101;-66
2021/11/18 05:20:29;;;;;;;39.92;6.05;;;;;;;;;;5109996;28;20036;-66
2021/11/18 05:22:57;;;;;;;39.78;6.78;;;;;;;;;;5113231;28;20060;-66
2021/11/18 05:25:23;;;;;;;;;;;;;;;;;;5126469;28;20043;-66
2021/11/18 05:27:49;;;;;;;41.35;5.70;;;;;;;;;;5117446;28;19916;-66
2021/11/18 05:30:16;;;;;;;25.70;5.95;;;;;;;;;;5115197;28;20105;-66
2021/11/18 05:32:42;;;;;;;28.85;6.15;;;;;;;;;;5118725;28;20040;-66
2021/11/18 05:35:09;;;;;;;35.75;6.07;;;;;;;;;;5112684;28;20216;-66
2021/11/18 05:37:35;;;;;;;32.03;7.45;;;;;;;;;;5123276;28;20095;-66
2021/11/18 05:40:03;;;;;;;38.83;5.60;;;;;;;;;;5112262;28;20147;-66
2021/11/18 05:42:30;;;;;;;27.85;6.13;;;;;;;;;;5119371;28;20048;-66
2021/11/18 05:44:56;;;;;;;34.38;7.32;;;;;;;;;;5115886;28;20042;-66
2021/11/18 05:47:23;;;;;;;30.45;5.90;;;;;;;;;;5122456;28;20055;-66
2021/11/18 05:49:49;;;;;;;37.30;5.50;;;;;;;;;;5112798;28;20058;-66
2021/11/18 05:52:15;;;;;;;32.33;6.00;;;;;;;;;;5113827;28;20039;-67
2021/11/18 05:54:42;;;;;;;35.13;6.25;;;;;;;;;;5117583;28;20119;-66
2021/11/18 05:57:08;;;;;;;29.20;6.10;;;;;;;;;;5113905;28;20097;-66
2021/11/18 05:59:34;;;;;;;33.53;6.75;;;;;;;;;;5124710;28;20140;-66
2021/11/18 06:02:00;;;;;;;36.97;7.15;;;;;;;;;;5117231;28;20496;-66
2021/11/18 06:04:27;;;;;;;36.40;6.35;;;;;;;;;;5118690;28;20115;-67
2021/11/18 06:06:53;;;;;;;23.33;5.90;;;;;;;;;;5122381;28;20036;-66
2021/11/18 06:09:19;;;;;;;30.92;6.35;;;;;;;;;;5124648;28;20089;-66
2021/11/18 06:11:46;;;;;;;29.23;5.90;;;;;;;;;;5124379;28;20118;-67
2021/11/18 06:14:12;;;;;;;24.90;6.97;;;;;;;;;;5123496;28;20058;-66
2021/11/18 06:16:39;;;;;;;32.58;5.80;;;;;;;;;;5120908;28;20039;-66
2021/11/18 06:19:05;;;;;;;35.60;6.57;;;;;;;;;;5116180;28;20324;-66
2021/11/18 06:21:33;;;;;;;36.13;7.80;;;;;;;;;;5124861;28;20036;-66
2021/11/18 06:23:59;;;;;;;;;;;;;;;;;;5125259;28;20044;-66
2021/11/18 06:26:27;;;;;;;39.00;6.70;;;;;;;;;;5121630;28;19927;-66
2021/11/18 06:28:55;;;;;;;35.10;6.70;;;;;;;;;;5118946;28;20114;-66
2021/11/18 06:31:21;;;;;;;;;;;;;;;;;;5125070;28;20048;-66
2021/11/18 06:33:47;;;;;;;34.15;5.43;;;;;;;;;;5124581;28;19955;-66
2021/11/18 06:36:13;;;;;;;30.33;6.35;;;;;;;;;;5123926;28;20187;-66
2021/11/18 06:38:40;;;;;;;35.60;5.97;;;;;;;;;;5115854;28;20044;-66
2021/11/18 06:41:07;;;;;;;29.80;6.27;;;;;;;;;;5123975;28;20042;-66
2021/11/18 06:43:34;;;;;;;38.20;6.43;;;;;;;;;;5115749;28;20039;-65
2021/11/18 06:46:00;;;;;;;30.15;6.10;;;;;;;;;;5101647;28;20086;-66
2021/11/18 06:48:30;;;;;;;30.63;5.78;;;;;;;;;;5124850;28;20099;-66
2021/11/18 06:50:59;;;;;;;26.35;5.90;;;;;;;;;;5124193;28;20081;-66
2021/11/18 06:53:25;;;;;;;29.10;5.90;;;;;;;;;;5118084;28;20040;-66
2021/11/18 06:55:52;;;;;;;29.88;5.82;;;;;;;;;;5116737;28;20044;-66
2021/11/18 06:58:18;;;;;;;35.75;6.63;;;;;;;;;;5123732;28;20099;-66
2021/11/18 07:00:44;;;;;;;32.25;5.97;;;;;;;;;;5123686;28;20131;-66
2021/11/18 07:03:11;;;;;;;34.25;6.82;;;;;;;;;;5095652;28;20040;-66
2021/11/18 07:05:37;;;;;;;36.33;5.80;;;;;;;;;;5128332;28;20073;-66
2021/11/18 07:08:04;;;;;;;42.38;5.68;;;;;;;;;;5128119;28;20048;-66
2021/11/18 07:10:30;;;;;;;26.50;6.13;;;;;;;;;;5127760;28;20044;-66
2021/11/18 07:12:56;;;;;;;34.85;5.93;;;;;;;;;;5126337;28;20043;-66
2021/11/18 07:15:24;;;;;;;28.92;5.85;;;;;;;;;;5128161;28;20051;-66
2021/11/18 07:17:51;;;;;;;25.70;5.22;;;;;;;;;;5128671;28;20047;-66
2021/11/18 07:20:17;;;;;;;20.35;5.25;;;;;;;;;;5128117;28;20031;-66
2021/11/18 07:22:43;;;;;;;27.02;5.47;;;;;;;;;;5123502;28;20044;-66
2021/11/18 07:25:12;;;;;;;44.10;6.95;;;;;;;;;;5119585;28;20047;-66
2021/11/18 07:27:38;;;;;;;24.45;5.30;;;;;;;;;;5127838;28;20063;-66
2021/11/18 07:30:05;;;;;;;24.58;5.03;;;;;;;;;;5128189;28;20086;-66
2021/11/18 07:32:31;;;;;;;30.70;6.03;;;;;;;;;;5125139;28;20059;-66
2021/11/18 07:34:59;;;;;;;25.40;6.00;;;;;;;;;;5107627;28;20086;-66
2021/11/18 07:37:25;;;;;;;27.67;5.28;;;;;;;;;;5122832;28;20044;-66
2021/11/18 07:39:51;;;;;;;25.60;4.97;;;;;;;;;;5127963;28;20035;-66
2021/11/18 07:42:17;;;;;;;33.17;6.93;;;;;;;;;;5127158;28;20163;-66
2021/11/18 07:44:44;;;;;;;25.10;5.75;;;;;;;;;;5127369;28;20095;-66
2021/11/18 07:47:10;;;;;;;25.90;5.38;;;;;;;;;;5127669;28;20115;-66
2021/11/18 07:49:36;;;;;;;42.08;6.25;;;;;;;;;;5127516;28;20051;-66
2021/11/18 07:52:03;;;;;;;28.77;5.97;;;;;;;;;;5127266;28;20062;-66
2021/11/18 07:54:29;;;;;;;32.22;6.65;;;;;;;;;;5123587;28;20035;-66
2021/11/18 07:56:55;;;;;;;28.52;5.65;;;;;;;;;;5126793;28;20085;-66
2021/11/18 07:59:22;;;;;;;30.20;5.30;;;;;;;;;;5127777;28;20157;-66
2021/11/18 08:01:49;;;;;;;18.08;4.25;;;;;;;;;;5127281;28;20088;-66
2021/11/18 08:04:15;;;;;;;24.00;4.88;;;;;;;;;;5124746;28;21811;-67
2021/11/18 08:06:42;;;;;;;25.20;6.30;;;;;;;;;;5125277;28;20076;-66
2021/11/18 08:09:10;;;;;;;28.92;5.18;;;;;;;;;;5127533;28;20044;-66
2021/11/18 08:11:38;;;;;;;29.17;5.60;;;;;;;;;;5126285;28;20047;-66
2021/11/18 08:14:05;;;;;;;23.65;5.07;;;;;;;;;;5126282;28;20388;-67
2021/11/18 08:16:32;;;;;;;30.48;5.45;;;;;;;;;;5116888;28;20071;-67
2021/11/18 08:18:58;;;;;;;30.95;6.25;;;;;;;;;;5113990;28;20042;-65
2021/11/18 08:21:24;;;;;;;39.03;5.75;;;;;;;;;;5122978;28;20118;-65
2021/11/18 08:23:51;;;;;;;28.85;5.55;;;;;;;;;;5108759;28;20044;-65
2021/11/18 08:26:18;;;;;;;24.65;4.38;;;;;;;;;;5116921;28;20040;-65
2021/11/18 08:28:44;;;;;;;28.50;5.57;;;;;;;;;;5126943;28;20079;-65
2021/11/18 08:31:11;;;;;;;24.58;5.32;;;;;;;;;;5124432;28;20293;-64
2021/11/18 08:33:38;;;;;;;24.33;5.30;;;;;;;;;;5114889;28;20044;-64
2021/11/18 08:36:04;;;;;;;24.90;5.10;;;;;;;;;;5111037;28;20126;-65
2021/11/18 08:38:32;;;;;;;33.78;5.18;;;;;;;;;;5126902;28;20047;-64
2021/11/18 08:41:02;;;;;;;22.25;5.47;;;;;;;;;;5116013;28;20093;-65
2021/11/18 08:43:29;;;;;;;25.92;5.28;;;;;;;;;;5111504;28;20065;-65
2021/11/18 08:45:55;;;;;;;26.03;5.03;;;;;;;;;;5115185;28;20039;-65
2021/11/18 08:48:21;;;;;;;20.77;6.07;;;;;;;;;;5114274;28;20324;-65
2021/11/18 08:50:49;;;;;;;22.75;4.40;;;;;;;;;;5107679;28;20059;-65
2021/11/18 08:53:17;;;;;;;23.48;5.57;;;;;;;;;;5116977;28;20576;-65
2021/11/18 08:55:43;;;;;;;22.92;5.40;;;;;;;;;;5117450;28;20039;-65
2021/11/18 08:58:13;;;;;;;32.20;5.95;;;;;;;;;;5121278;28;20051;-65
2021/11/18 09:00:46;;;;;;;18.75;4.93;;;;;;;;;;5121757;28;20521;-65
2021/11/18 09:03:12;;;;;;;25.00;5.00;;;;;;;;;;5099186;28;20082;-65
2021/11/18 09:05:38;;;;;;;34.80;5.53;;;;;;;;;;5126575;28;20043;-65
2021/11/18 09:08:05;;;;;;;23.40;5.25;;;;;;;;;;5124050;28;20047;-65
2021/11/18 09:10:31;;;;;;;21.08;4.85;;;;;;;;;;5125290;28;20071;-65
2021/11/18 09:12:58;;;;;;;22.55;3.90;;;;;;;;;;5123735;28;20411;-65
2021/11/18 09:15:25;;;;;;;21.45;4.82;;;;;;;;;;5115331;28;20085;-65
2021/11/18 09:17:51;;;;;;;23.00;4.03;;;;;;;;;;5116765;28;20044;-65
2021/11/18 09:20:18;;;;;;;22.23;4.93;;;;;;;;;;5114410;28;20290;-65
2021/11/18 09:22:45;;;;;;;38.25;6.00;;;;;;;;;;5111529;28;20071;-64
2021/11/18 09:25:13;;;;;;;22.05;4.28;;;;;;;;;;5109816;28;20044;-64
2021/11/18 09:27:41;;;;;;;36.67;5.82;;;;;;;;;;5125543;28;20237;-64
2021/11/18 09:30:10;;;;;;;26.13;5.35;;;;;;;;;;5118281;28;20207;-65
2021/11/18 09:32:36;;;;;;;24.75;4.80;;;;;;;;;;5110098;28;20061;-65
2021/11/18 09:35:06;;;;;;;25.85;5.05;;;;;;;;;;5122761;28;20120;-64
2021/11/18 09:37:32;;;;;;;23.50;5.15;;;;;;;;;;5121160;28;20042;-64
2021/11/18 09:39:58;;;;;;;28.40;5.45;;;;;;;;;;5114954;28;20185;-64
2021/11/18 09:42:29;;;;;;;17.90;4.25;;;;;;;;;;5111259;28;20071;-64
2021/11/18 09:45:12;;;;;;;20.40;6.05;;;;;;;;;;5102026;28;20071;-64
2021/11/18 09:47:58;;;;;;;20.40;4.10;;;;;;;;;;5098949;28;20510;-64
2021/11/18 09:50:43;;;;;;;30.70;5.20;;;;;;;;;;5117687;28;20077;-61
2021/11/18 09:53:14;;;;;;;16.90;5.40;;;;;;;;;;5111685;28;20063;-60
2021/11/18 09:55:46;;;;;;;22.77;5.78;;;;;;;;;;5114038;28;20091;-65
2021/11/18 09:58:31;;;;;;;25.27;5.57;;;;;;;;;;5113663;28;20100;-64
2021/11/18 10:01:09;;;;;;;19.95;3.75;;;;;;;;;;5096392;28;20054;-65
2021/11/18 10:03:54;;;;;;;16.23;3.07;;;;;;;;;;5109540;28;20130;-70
2021/11/18 10:06:24;;;;;;;26.30;5.95;;;;;;;;;;5103927;28;20852;-68
2021/11/18 10:08:55;;;;;;;19.08;4.30;;;;;;;;;;5111013;28;20556;-74
2021/11/18 10:11:31;;;;;;;22.27;4.60;;;;;;;;;;5099051;28;20164;-63
2021/11/18 10:14:03;;;;;;;12.73;3.22;;;;;;;;;;5109881;28;20498;-66
2021/11/18 10:16:33;;;;;;;25.98;6.07;;;;;;;;;;5112566;28;20046;-69
2021/11/18 10:19:04;;;;;;;23.60;3.88;;;;;;;;;;5107537;28;20057;-72
2021/11/18 10:21:39;;;;;;;25.23;3.78;;;;;;;;;;5110267;28;20548;-68
2021/11/18 10:24:10;;;;;;;19.00;4.53;;;;;;;;;;5116836;28;20056;-69
2021/11/18 10:26:42;;;;;;;21.52;3.40;;;;;;;;;;5115426;28;20040;-65
2021/11/18 10:29:23;;;;;;;20.48;3.80;;;;;;;;;;5109161;28;20095;-62
2021/11/18 10:31:49;;;;;;;22.30;4.45;;;;;;;;;;5122995;28;20075;-68
2021/11/18 10:34:22;;;;;;;17.75;4.50;;;;;;;;;;5123392;28;20040;-70
2021/11/18 10:36:57;;;;;;;27.60;4.05;;;;;;;;;;5108382;28;20044;-67
2021/11/18 10:39:23;;;;;;;23.48;4.60;;;;;;;;;;5112713;28;20058;-66
2021/11/18 10:42:00;;;;;;;21.95;4.93;;;;;;;;;;5110439;28;20104;-66
2021/11/18 10:44:30;;;;;;;18.08;4.15;;;;;;;;;;5111255;28;20055;-74
2021/11/18 10:47:07;;;;;;;17.63;3.25;;;;;;;;;;5110882;28;20128;-70
2021/11/18 10:49:40;;;;;;;22.10;3.50;;;;;;;;;;5121392;28;20051;-65
2021/11/18 10:52:16;;;;;;;12.63;3.33;;;;;;;;;;5113039;28;20047;-65
2021/11/18 10:54:48;;;;;;;18.83;4.38;;;;;;;;;;5097767;28;20048;-65
2021/11/18 10:57:22;;;;;;;17.48;3.88;;;;;;;;;;5105095;28;20104;-65
2021/11/18 10:59:53;;;;;;;15.90;3.53;;;;;;;;;;5115643;28;20036;-64
2021/11/18 11:02:19;;;;;;;26.00;4.53;;;;;;;;;;5120695;28;21143;-64
2021/11/18 11:04:47;;;;;;;20.88;3.85;;;;;;;;;;5113974;28;20051;-67
2021/11/18 11:07:14;;;;;;;20.45;4.63;;;;;;;;;;5092740;28;20548;-64
2021/11/18 11:09:42;;;;;;;31.42;4.93;;;;;;;;;;5118749;28;20043;-71
2021/11/18 11:12:11;;;;;;;21.70;3.70;;;;;;;;;;5110319;28;20548;-69
2021/11/18 11:15:02;;;;;;;20.77;3.80;;;;;;;;;;5114609;28;20132;-65
2021/11/18 11:17:57;;;;;;;19.33;3.92;;;;;;;;;;5071688;28;20504;-73
2021/11/18 11:20:38;;;;;;;17.85;4.35;;;;;;;;;;5037125;28;20145;-71
2021/11/18 11:23:10;;;;;;;19.95;3.50;;;;;;;;;;5036137;28;20087;-74
2021/11/18 11:25:55;;;;;;;18.63;3.80;;;;;;;;;;5035633;28;20049;-73
2021/11/18 11:28:40;;;;;;;19.75;4.18;;;;;;;;;;5036035;28;20065;-73
2021/11/18 11:31:12;;;;;;;18.02;4.40;;;;;;;;;;5037879;28;20057;-73
2021/11/18 11:33:44;;;;;;;20.48;3.83;;;;;;;;;;5039508;28;20041;-73
2021/11/18 11:36:18;;;;;;;19.10;4.47;;;;;;;;;;5032048;28;20139;-68
2021/11/18 11:38:52;;;;;;;19.92;3.50;;;;;;;;;;5041854;28;20069;-74
2021/11/18 11:41:18;;;;;;;17.55;4.57;;;;;;;;;;5042758;28;20169;-72
2021/11/18 11:44:09;;;;;;;24.85;4.05;;;;;;;;;;5038813;28;20545;-71
2021/11/18 11:46:38;;;;;;;20.27;3.58;;;;;;;;;;5035997;28;20073;-73
2021/11/18 11:49:07;;;;;;;19.73;4.45;;;;;;;;;;5040248;28;20084;-70
2021/11/18 11:51:35;;;;;;;21.33;5.57;;;;;;;;;;5062803;28;20048;-73
2021/11/18 11:54:17;;;;;;;26.52;4.50;;;;;;;;;;5048014;28;20076;-73
2021/11/18 11:56:45;;;;;;;20.88;3.72;;;;;;;;;;5081799;28;20039;-65
2021/11/18 11:59:11;;;;;;;;;;;;;;;;;;5100504;28;20074;-65
2021/11/18 12:01:40;;;;;;;19.92;4.10;;;;;;;;;;5091577;28;19920;-65
2021/11/18 12:04:24;;;;;;;37.63;4.20;;;;;;;;;;5099678;28;20050;-65
2021/11/18 12:07:03;;;;;;;19.73;4.30;;;;;;;;;;5096559;28;20100;-65
2021/11/18 12:09:48;;;;;;;23.83;3.97;;;;;;;;;;5092778;28;20119;-65
2021/11/18 12:12:34;;;;;;;18.17;3.53;;;;;;;;;;5096738;28;20197;-65
2021/11/18 12:15:02;;;;;;;19.70;4.25;;;;;;;;;;5092028;28;20131;-64
2021/11/18 12:17:28;;;;;;;26.40;3.83;;;;;;;;;;5094952;28;20043;-67
2021/11/18 12:20:08;;;;;;;19.90;3.90;;;;;;;;;;5102906;28;20119;-66
2021/11/18 12:22:53;;;;;;;25.23;4.68;;;;;;;;;;5092523;28;20470;-68
2021/11/18 12:25:20;;;;;;;27.35;5.10;;;;;;;;;;5099440;28;20046;-67
2021/11/18 12:27:49;;;;;;;24.42;3.78;;;;;;;;;;5104226;28;20051;-67
2021/11/18 12:30:24;;;;;;;22.25;5.13;;;;;;;;;;5104927;28;20039;-68
2021/11/18 12:33:05;;;;;;;25.95;4.45;;;;;;;;;;5087627;28;20190;-68
2021/11/18 12:35:34;;;;;;;23.08;3.72;;;;;;;;;;5091102;28;20105;-67
2021/11/18 12:38:19;;;;;;;16.42;3.83;;;;;;;;;;5102594;28;20139;-67
2021/11/18 12:41:00;;;;;;;17.90;5.03;;;;;;;;;;5102680;28;20108;-67
2021/11/18 12:43:26;;;;;;;19.13;3.60;;;;;;;;;;5102461;28;20050;-67
2021/11/18 12:46:11;;;;;;;19.63;3.85;;;;;;;;;;5093908;28;20037;-67
2021/11/18 12:48:52;;;;;;;19.05;4.68;;;;;;;;;;5094280;28;20063;-67
2021/11/18 12:51:18;;;;;;;29.98;5.70;;;;;;;;;;5116729;28;20051;-67
2021/11/18 12:53:50;;;;;;;15.32;3.75;;;;;;;;;;5120472;28;20163;-67
2021/11/18 12:56:23;;;;;;;27.92;5.00;;;;;;;;;;5120541;28;20040;-67
2021/11/18 12:58:55;;;;;;;22.35;4.32;;;;;;;;;;5115643;28;20040;-67
2021/11/18 13:01:21;;;;;;;25.48;4.72;;;;;;;;;;5098540;28;20384;-67
2021/11/18 13:03:47;;;;;;;22.13;3.90;;;;;;;;;;5111642;28;20123;-67
2021/11/18 13:06:34;;;;;;;24.15;3.80;;;;;;;;;;5111432;28;20547;-67
2021/11/18 13:09:01;;;;;;;25.17;4.07;;;;;;;;;;5096470;28;20127;-67
2021/11/18 13:11:27;;;;;;;32.08;4.93;;;;;;;;;;5108411;28;20127;-80
2021/11/18 13:14:12;;;;;;;18.75;4.07;;;;;;;;;;5117654;28;20078;-81
2021/11/18 13:16:51;;;;;;;20.73;4.50;;;;;;;;;;5113380;28;20453;-76
2021/11/18 13:19:30;;;;;;;26.98;5.35;;;;;;;;;;5113860;28;20048;-76
2021/11/18 13:22:18;;;;;;;21.80;4.07;;;;;;;;;;5112350;28;20052;-81
2021/11/18 13:24:44;;;;;;;24.15;5.28;;;;;;;;;;5123280;28;20039;-79
2021/11/18 13:27:15;;;;;;;31.48;6.20;;;;;;;;;;5120347;28;20052;-77
2021/11/18 13:29:46;;;;;;;18.50;4.57;;;;;;;;;;5113656;28;20120;-78
2021/11/18 13:32:13;;;;;;;22.13;4.53;;;;;;;;;;5119270;28;20169;-68
2021/11/18 13:34:44;;;;;;;28.13;5.53;;;;;;;;;;5112855;28;20059;-69
2021/11/18 13:37:13;;;;;;;31.33;5.85;;;;;;;;;;5115766;28;20126;-69
2021/11/18 13:39:57;;;;;;;26.95;4.93;;;;;;;;;;5120893;28;20096;-68
2021/11/18 13:42:23;;;;;;;19.88;4.68;;;;;;;;;;5117014;28;20044;-72
2021/11/18 13:45:09;;;;;;;35.25;4.68;;;;;;;;;;5114325;28;20039;-63
2021/11/18 13:47:37;;;;;;;23.98;5.32;;;;;;;;;;5124217;28;20118;-64
2021/11/18 13:50:13;;;;;;;30.83;6.13;;;;;;;;;;5098276;28;20106;-77
2021/11/18 13:52:41;;;;;;;28.95;5.80;;;;;;;;;;5110670;28;20148;-69
2021/11/18 13:55:22;;;;;;;20.65;4.97;;;;;;;;;;5122019;28;20040;-68
2021/11/18 13:57:49;;;;;;;42.15;5.88;;;;;;;;;;5110675;28;20040;-69
2021/11/18 14:00:21;;;;;;;24.65;4.90;;;;;;;;;;5119167;28;20126;-68
2021/11/18 14:02:47;;;;;;;35.70;5.43;;;;;;;;;;5118667;28;20040;-69
2021/11/18 14:05:17;;;;;;;34.10;5.15;;;;;;;;;;5103434;28;20047;-77
2021/11/18 14:07:45;;;;;;;30.05;5.70;;;;;;;;;;5115032;28;20060;-76
2021/11/18 14:10:14;;;;;;;32.60;4.88;;;;;;;;;;5109341;28;20048;-72
2021/11/18 14:12:51;;;;;;;23.35;5.07;;;;;;;;;;5095027;28;20055;-70
2021/11/18 14:15:36;;;;;;;24.40;4.87;;;;;;;;;;5109948;28;20047;-72
2021/11/18 14:18:13;;;;;;;28.85;6.03;;;;;;;;;;5100957;28;20298;-72
2021/11/18 14:20:58;;;;;;;28.08;4.32;;;;;;;;;;5098883;28;20407;-64
2021/11/18 14:23:24;;;;;;;30.42;5.90;;;;;;;;;;5112356;28;20464;-69
2021/11/18 14:26:19;;;;;;;19.85;5.45;;;;;;;;;;5112861;28;20040;-66
2021/11/18 14:28:57;;;;;;;22.60;5.45;;;;;;;;;;5086594;28;20051;-70
2021/11/18 14:31:41;;;;;;;26.23;4.63;;;;;;;;;;5113665;28;20054;-69
2021/11/18 14:34:10;;;;;;;22.80;5.57;;;;;;;;;;5119540;28;20092;-72
2021/11/18 14:36:51;;;;;;;22.25;4.25;;;;;;;;;;5115623;28;20067;-64
2021/11/18 14:39:26;;;;;;;33.40;5.18;;;;;;;;;;5117980;28;20040;-75
2021/11/18 14:41:54;;;;;;;27.27;4.38;;;;;;;;;;5114708;28;20038;-71
2021/11/18 14:44:35;;;;;;;33.30;5.10;;;;;;;;;;5112924;28;20058;-74
2021/11/18 14:47:04;;;;;;;25.13;5.32;;;;;;;;;;5117576;28;20067;-70